Time;durP1;ratioP1;P1;durP2;ratioP2;P2;SDS_P1;SDS_P2;PMS_P1;PMS_P2;Temp;Humidity;BMP_temperature;BMP_pressure;BME280_temperature;BME280_humidity;BME280_pressure;Samples;Min_cycle;Max_cycle;Signal;HPM_P1;HPM_P2
2022/10/10 00:01:23;;;;;;;;;;;11.00;99.90;;;;;;5046563;28;20458;-64
2022/10/10 00:03:51;;;;;;;;;;;11.00;99.90;;;;;;5050120;28;19968;-65
2022/10/10 00:06:19;;;;;;;;;;;10.90;99.90;;;;;;5051111;28;19968;-65
2022/10/10 00:08:47;;;;;;;;;;;10.90;99.90;;;;;;5050105;28;20111;-66
2022/10/10 00:11:16;;;;;;;;;;;10.80;99.90;;;;;;5045170;28;19964;-66
2022/10/10 00:13:45;;;;;;;;;;;10.80;99.90;;;;;;5046664;28;19964;-66
2022/10/10 00:16:13;;;;;;;;;;;10.70;99.90;;;;;;5050974;28;20025;-64
2022/10/10 00:18:41;;;;;;;;;;;10.70;99.90;;;;;;5050907;28;19971;-64
2022/10/10 00:21:09;;;;;;;;;;;10.70;99.90;;;;;;5050669;28;19995;-64
2022/10/10 00:23:37;;;;;;;;;;;10.70;99.90;;;;;;5051242;28;19968;-64
2022/10/10 00:26:05;;;;;;;;;;;10.80;99.90;;;;;;5052509;28;20006;-65
2022/10/10 00:28:37;;;;;;;;;;;10.70;99.90;;;;;;5050201;28;20026;-65
2022/10/10 00:31:06;;;;;;;;;;;10.70;99.90;;;;;;5047882;28;19972;-65
2022/10/10 00:33:33;;;;;;;;;;;10.70;99.90;;;;;;5050497;28;19968;-65
2022/10/10 00:36:01;;;;;;;;;;;10.60;99.90;;;;;;5050658;28;19968;-65
2022/10/10 00:38:30;;;;;;;;;;;10.70;99.90;;;;;;5047016;28;19965;-64
2022/10/10 00:40:58;;;;;;;;;;;10.70;99.90;;;;;;5047302;28;20516;-65
2022/10/10 00:43:27;;;;;;;;;;;10.70;99.90;;;;;;5050775;28;19970;-65
2022/10/10 00:45:56;;;;;;;;;;;10.70;99.90;;;;;;5050050;28;19968;-65
2022/10/10 00:48:25;;;;;;;;;;;10.80;99.90;;;;;;5050204;28;20018;-65
2022/10/10 00:50:55;;;;;;;;;;;10.80;99.90;;;;;;5050201;28;19978;-65
2022/10/10 00:53:24;;;;;;;;;;;10.80;99.90;;;;;;5049268;28;19968;-65
2022/10/10 00:55:52;;;;;;;;;;;10.80;99.90;;;;;;5051435;28;20338;-65
2022/10/10 00:58:20;;;;;;;;;;;10.80;99.90;;;;;;5050297;28;19968;-65
2022/10/10 01:00:49;;;;;;;;;;;10.90;99.90;;;;;;5042882;28;20336;-65
2022/10/10 01:03:18;;;;;;;;;;;10.90;99.90;;;;;;5048198;28;20094;-65
2022/10/10 01:05:46;;;;;;;;;;;10.90;99.90;;;;;;5046076;28;19972;-64
2022/10/10 01:08:14;;;;;;;;;;;10.90;99.90;;;;;;5016659;22;19969;-64
2022/10/10 01:10:57;;;;;;;;;;;10.80;99.90;;;;;;4970145;28;19977;-64
2022/10/10 01:13:28;;;;;;;;;;;10.80;99.90;;;;;;4965895;28;19973;-64
2022/10/10 01:15:59;;;;;;;;;;;10.80;99.90;;;;;;4967805;28;19973;-64
2022/10/10 01:18:36;;;;;;;;;;;10.80;99.90;;;;;;4964147;28;20507;-64
2022/10/10 01:21:10;;;;;;;;;;;10.80;99.90;;;;;;4984672;28;20453;-64
2022/10/10 01:24:04;;;;;;;;;;;10.80;99.90;;;;;;4978238;28;19972;-64
2022/10/10 01:27:02;;;;;;;;;;;10.80;99.90;;;;;;4974908;28;19974;-65
2022/10/10 01:29:32;;;;;;;;;;;10.70;99.90;;;;;;5029993;28;19979;-65
2022/10/10 01:32:04;;;;;;;;;;;10.70;99.90;;;;;;4973952;28;19973;-65
2022/10/10 01:34:36;;;;;;;;;;;10.80;99.90;;;;;;4968749;28;21469;-65
2022/10/10 01:37:06;;;;;;;;;;;10.70;99.90;;;;;;4978182;28;19972;-67
2022/10/10 01:39:39;;;;;;;;;;;10.80;99.90;;;;;;4973796;28;19973;-67
2022/10/10 01:42:10;;;;;;;;;;;10.70;99.90;;;;;;4964654;28;21486;-66
2022/10/10 01:44:43;;;;;;;;;;;10.60;99.90;;;;;;4974730;28;19965;-66
2022/10/10 01:47:10;;;;;;;;;;;10.50;99.90;;;;;;4964217;28;19969;-66
2022/10/10 01:49:39;;;;;;;;;;;10.50;99.90;;;;;;4969113;28;19976;-67
2022/10/10 01:52:14;;;;;;;;;;;10.40;99.90;;;;;;4977197;28;19974;-66
2022/10/10 01:54:47;;;;;;;;;;;10.20;99.90;;;;;;4968986;28;20452;-66
2022/10/10 01:57:18;;;;;;;;;;;10.00;99.90;;;;;;4967407;28;19969;-65
2022/10/10 01:59:52;;;;;;;;;;;10.00;99.90;;;;;;4964029;28;21705;-66
2022/10/10 02:02:23;;;;;;;;;;;9.80;99.90;;;;;;4982694;28;19973;-65
2022/10/10 02:04:52;;;;;;;;;;;9.90;99.90;;;;;;4983634;28;19973;-65
2022/10/10 02:07:23;;;;;;;;;;;10.00;99.90;;;;;;4970053;28;19980;-66
2022/10/10 02:09:52;;;;;;;;;;;10.10;99.90;;;;;;4966554;28;19969;-65
2022/10/10 02:12:20;;;;;;;;;;;10.10;99.90;;;;;;4973321;28;19974;-65
2022/10/10 02:14:51;;;;;;;;;;;10.10;99.90;;;;;;4982126;28;20336;-65
2022/10/10 02:17:19;;;;;;;;;;;10.20;99.90;;;;;;4963920;28;19973;-66
2022/10/10 02:19:49;;;;;;;;;;;10.30;99.90;;;;;;4965385;28;20057;-66
2022/10/10 02:22:17;;;;;;;;;;;10.30;99.90;;;;;;4980504;28;20327;-66
2022/10/10 02:24:45;;;;;;;;;;;10.30;99.90;;;;;;4989404;28;20641;-65
2022/10/10 02:27:16;;;;;;;;;;;10.30;99.90;;;;;;4972685;28;19969;-66
2022/10/10 02:29:45;;;;;;;;;;;10.30;99.90;;;;;;4967457;28;19973;-66
2022/10/10 02:32:15;;;;;;;;;;;10.30;99.90;;;;;;4962849;28;19969;-65
2022/10/10 02:34:46;;;;;;;;;;;10.40;99.90;;;;;;4963415;28;19985;-65
2022/10/10 02:37:15;;;;;;;;;;;10.40;99.90;;;;;;4966354;28;21461;-65
2022/10/10 02:39:44;;;;;;;;;;;10.40;99.90;;;;;;4968705;28;19977;-66
2022/10/10 02:42:13;;;;;;;;;;;10.40;99.90;;;;;;4964160;28;19973;-66
2022/10/10 02:44:41;;;;;;;;;;;10.40;99.90;;;;;;4973107;28;19973;-68
2022/10/10 02:47:09;;;;;;;;;;;10.30;99.90;;;;;;4969663;28;19984;-65
2022/10/10 02:49:38;;;;;;;;;;;10.20;99.90;;;;;;4962686;28;19965;-65
2022/10/10 02:52:06;;;;;;;;;;;10.20;99.90;;;;;;4963290;28;19973;-65
2022/10/10 02:54:33;;;;;;;;;;;10.30;99.90;;;;;;4969763;28;19981;-65
2022/10/10 02:57:01;;;;;;;;;;;10.20;99.90;;;;;;4969694;28;19971;-64
2022/10/10 02:59:29;;;;;;;;;;;10.10;99.90;;;;;;4980988;28;19969;-66
2022/10/10 03:01:56;;;;;;;;;;;10.10;99.90;;;;;;4972319;28;20030;-64
2022/10/10 03:04:24;;;;;;;;;;;10.10;99.90;;;;;;4962539;28;20149;-65
2022/10/10 03:06:53;;;;;;;;;;;10.10;99.90;;;;;;4967890;28;19988;-65
2022/10/10 03:09:21;;;;;;;;;;;10.20;99.90;;;;;;4966477;28;20200;-66
2022/10/10 03:11:49;;;;;;;;;;;10.20;99.90;;;;;;4976740;28;19976;-66
2022/10/10 03:14:16;;;;;;;;;;;10.20;99.90;;;;;;4965785;28;19969;-65
2022/10/10 03:16:44;;;;;;;;;;;10.20;99.90;;;;;;4981870;28;19973;-65
2022/10/10 03:19:12;;;;;;;;;;;10.20;99.90;;;;;;4971518;28;19974;-65
2022/10/10 03:21:39;;;;;;;;;;;10.20;99.90;;;;;;4984908;28;19974;-65
2022/10/10 03:24:08;;;;;;;;;;;10.30;99.90;;;;;;4966078;28;19973;-64
2022/10/10 03:26:36;;;;;;;;;;;10.30;99.90;;;;;;4965232;28;19989;-65
2022/10/10 03:29:04;;;;;;;;;;;10.30;99.90;;;;;;4969229;28;20442;-64
2022/10/10 03:31:31;;;;;;;;;;;10.30;99.90;;;;;;4970111;28;20358;-65
2022/10/10 03:33:59;;;;;;;;;;;10.30;99.90;;;;;;4966519;28;19979;-64
2022/10/10 03:36:27;;;;;;;;;;;10.30;99.90;;;;;;4974452;28;21504;-65
2022/10/10 03:38:54;;;;;;;;;;;10.30;99.90;;;;;;4971001;28;19988;-65
2022/10/10 03:41:24;;;;;;;;;;;10.30;99.90;;;;;;4965537;28;19980;-64
2022/10/10 03:43:51;;;;;;;;;;;10.20;99.90;;;;;;4978485;28;19973;-64
2022/10/10 03:46:19;;;;;;;;;;;10.20;99.90;;;;;;4978919;28;20392;-66
2022/10/10 03:48:47;;;;;;;;;;;10.20;99.90;;;;;;4971095;28;20014;-65
2022/10/10 03:51:15;;;;;;;;;;;10.20;99.90;;;;;;4966936;28;20357;-65
2022/10/10 03:53:42;;;;;;;;;;;10.20;99.90;;;;;;4966337;28;20349;-65
2022/10/10 03:56:10;;;;;;;;;;;10.20;99.90;;;;;;4972729;28;20454;-65
2022/10/10 03:58:39;;;;;;;;;;;10.20;99.90;;;;;;4965003;28;19973;-66
2022/10/10 04:01:07;;;;;;;;;;;10.20;99.90;;;;;;4969491;28;19973;-65
2022/10/10 04:03:35;;;;;;;;;;;10.20;99.90;;;;;;4970516;28;19991;-65
2022/10/10 04:06:02;;;;;;;;;;;10.20;99.90;;;;;;4964581;28;19969;-66
2022/10/10 04:08:30;;;;;;;;;;;10.20;99.90;;;;;;4968985;28;19964;-65
2022/10/10 04:10:58;;;;;;;;;;;10.20;99.90;;;;;;4987168;28;20434;-66
2022/10/10 04:13:26;;;;;;;;;;;10.20;99.90;;;;;;4990895;28;19976;-65
2022/10/10 04:15:55;;;;;;;;;;;10.20;99.90;;;;;;4982352;28;19970;-65
2022/10/10 04:18:23;;;;;;;;;;;10.10;99.90;;;;;;4987290;28;19965;-65
2022/10/10 04:20:51;;;;;;;;;;;10.00;99.90;;;;;;4985810;28;20623;-66
2022/10/10 04:23:19;;;;;;;;;;;10.00;99.90;;;;;;4986982;28;20341;-64
2022/10/10 04:25:50;;;;;;;;;;;10.00;99.90;;;;;;4991483;28;19977;-64
2022/10/10 04:28:18;;;;;;;;;;;9.90;99.90;;;;;;4979027;28;20438;-64
2022/10/10 04:30:46;;;;;;;;;;;9.70;99.90;;;;;;4977879;28;20407;-64
2022/10/10 04:33:15;;;;;;;;;;;9.60;99.90;;;;;;4980423;28;19983;-64
2022/10/10 04:35:43;;;;;;;;;;;9.50;99.90;;;;;;4978005;28;20365;-64
2022/10/10 04:38:11;;;;;;;;;;;9.40;99.90;;;;;;4980739;28;20061;-64
2022/10/10 04:40:38;;;;;;;;;;;9.30;99.90;;;;;;4980305;28;20377;-64
2022/10/10 04:43:06;;;;;;;;;;;9.30;99.90;;;;;;4981783;28;19965;-64
2022/10/10 04:45:34;;;;;;;;;;;9.20;99.90;;;;;;4978412;28;19972;-63
2022/10/10 04:48:04;;;;;;;;;;;9.20;99.90;;;;;;4981060;28;20059;-64
2022/10/10 04:50:33;;;;;;;;;;;9.10;99.90;;;;;;4980163;28;19995;-64
2022/10/10 04:53:01;;;;;;;;;;;9.00;99.90;;;;;;4981232;28;19977;-64
2022/10/10 04:55:29;;;;;;;;;;;8.90;99.90;;;;;;4978000;28;19980;-64
2022/10/10 04:57:56;;;;;;;;;;;8.90;99.90;;;;;;4980815;28;19977;-64
2022/10/10 05:00:24;;;;;;;;;;;8.80;99.90;;;;;;4980099;28;19992;-64
2022/10/10 05:02:52;;;;;;;;;;;8.80;99.90;;;;;;4980558;28;19977;-63
2022/10/10 05:05:20;;;;;;;;;;;8.80;99.90;;;;;;4978873;28;20080;-64
2022/10/10 05:07:49;;;;;;;;;;;8.70;99.90;;;;;;4980797;28;19983;-65
2022/10/10 05:10:22;;;;;;;;;;;8.60;99.90;;;;;;4980606;28;20552;-64
2022/10/10 05:12:51;;;;;;;;;;;8.50;99.90;;;;;;4977846;28;20213;-64
2022/10/10 05:15:21;;;;;;;;;;;8.50;99.90;;;;;;4978089;28;19977;-63
2022/10/10 05:17:49;;;;;;;;;;;8.50;99.90;;;;;;4980812;28;20479;-64
2022/10/10 05:20:17;;;;;;;;;;;8.50;99.90;;;;;;4980195;28;19973;-64
2022/10/10 05:22:44;;;;;;;;;;;8.40;99.90;;;;;;4979397;28;19973;-64
2022/10/10 05:25:13;;;;;;;;;;;8.50;99.90;;;;;;4977918;28;19972;-64
2022/10/10 05:27:41;;;;;;;;;;;8.40;99.90;;;;;;4977818;28;20442;-64
2022/10/10 05:30:09;;;;;;;;;;;8.30;99.90;;;;;;4978742;28;19973;-64
2022/10/10 05:32:37;;;;;;;;;;;8.30;99.90;;;;;;4982374;28;19972;-64
2022/10/10 05:35:05;;;;;;;;;;;8.20;99.90;;;;;;4977597;28;21327;-64
2022/10/10 05:37:33;;;;;;;;;;;8.10;99.90;;;;;;4980174;28;19976;-64
2022/10/10 05:40:01;;;;;;;;;;;8.20;99.90;;;;;;4979394;28;19983;-64
2022/10/10 05:42:30;;;;;;;;;;;8.20;99.90;;;;;;4980415;28;20437;-64
2022/10/10 05:44:57;;;;;;;;;;;8.20;99.90;;;;;;4978852;28;20440;-64
2022/10/10 05:47:25;;;;;;;;;;;8.20;99.90;;;;;;4980461;28;19971;-64
2022/10/10 05:49:54;;;;;;;;;;;8.20;99.90;;;;;;4977794;28;19985;-64
2022/10/10 05:52:22;;;;;;;;;;;8.20;99.90;;;;;;4979321;28;20002;-64
2022/10/10 05:54:50;;;;;;;;;;;8.20;99.90;;;;;;4978713;28;19977;-63
2022/10/10 05:57:18;;;;;;;;;;;8.20;99.90;;;;;;4978170;28;19980;-65
2022/10/10 05:59:47;;;;;;;;;;;8.20;99.90;;;;;;4979297;28;19977;-65
2022/10/10 06:02:14;;;;;;;;;;;8.10;99.90;;;;;;4980300;28;19980;-64
2022/10/10 06:04:42;;;;;;;;;;;8.10;99.90;;;;;;4978225;28;20019;-64
2022/10/10 06:07:10;;;;;;;;;;;8.10;99.90;;;;;;4979709;28;20452;-64
2022/10/10 06:09:38;;;;;;;;;;;8.10;99.90;;;;;;4982566;28;19965;-63
2022/10/10 06:12:05;;;;;;;;;;;8.10;99.90;;;;;;4981443;28;19973;-64
2022/10/10 06:14:33;;;;;;;;;;;8.20;99.90;;;;;;4977223;28;19989;-62
2022/10/10 06:17:03;;;;;;;;;;;8.90;99.90;;;;;;4979468;28;19987;-64
2022/10/10 06:19:31;;;;;;;;;;;11.30;99.90;;;;;;4975674;28;19995;-64
2022/10/10 06:21:59;;;;;;;;;;;12.30;99.90;;;;;;4979117;28;20071;-63
2022/10/10 06:24:26;;;;;;;;;;;13.20;99.90;;;;;;4977154;28;19986;-64
2022/10/10 06:26:54;;;;;;;;;;;13.70;99.90;;;;;;4977497;28;19977;-64
2022/10/10 06:29:22;;;;;;;;;;;13.90;99.90;;;;;;4983125;28;20052;-64
2022/10/10 06:31:50;;;;;;;;;;;14.30;99.90;;;;;;4986682;28;20487;-64
2022/10/10 06:34:19;;;;;;;;;;;14.00;99.90;;;;;;4988112;28;19975;-63
2022/10/10 06:36:48;;;;;;;;;;;13.60;99.90;;;;;;4988783;28;19973;-64
2022/10/10 06:39:16;;;;;;;;;;;13.00;99.90;;;;;;4989029;28;20349;-64
2022/10/10 06:41:44;;;;;;;;;;;12.40;99.90;;;;;;4992789;28;19969;-64
2022/10/10 06:44:11;;;;;;;;;;;12.00;99.90;;;;;;4992817;28;19991;-64
2022/10/10 06:46:39;;;;;;;;;;;11.60;99.90;;;;;;4992528;28;19969;-64
2022/10/10 06:49:07;;;;;;;;;;;11.30;99.90;;;;;;4992928;28;20058;-64
2022/10/10 06:51:36;;;;;;;;;;;11.10;99.90;;;;;;4992476;28;19984;-64
2022/10/10 06:54:05;;;;;;;;;;;10.90;99.90;;;;;;4992716;28;19973;-64
2022/10/10 06:56:32;;;;;;;;;;;10.80;99.90;;;;;;4992672;28;19976;-64
2022/10/10 06:59:00;;;;;;;;;;;10.70;99.90;;;;;;4992597;28;19969;-64
2022/10/10 07:01:28;;;;;;;;;;;10.60;99.90;;;;;;4992492;28;19970;-65
2022/10/10 07:03:56;;;;;;;;;;;10.60;99.90;;;;;;4992529;28;19992;-64
2022/10/10 07:06:23;;;;;;;;;;;10.60;99.90;;;;;;4992527;28;20361;-64
2022/10/10 07:08:52;;;;;;;;;;;10.60;99.90;;;;;;5075112;23;19967;-65
2022/10/10 07:11:21;;;;;;;;;;;10.60;99.90;;;;;;5073797;28;19968;-65
2022/10/10 07:13:49;;;;;;;;;;;10.70;99.90;;;;;;5074901;28;19968;-65
2022/10/10 07:16:17;;;;;;;;;;;10.80;99.90;;;;;;5074876;28;19978;-65
2022/10/10 07:18:45;;;;;;;;;;;10.80;99.90;;;;;;5074758;28;19978;-65
2022/10/10 07:21:12;;;;;;;;;;;10.90;99.90;;;;;;5074531;28;19975;-65
2022/10/10 07:23:40;;;;;;;;;;;11.00;99.90;;;;;;5074685;28;20007;-65
2022/10/10 07:26:11;;;;;;;;;;;11.20;99.90;;;;;;5074508;28;19974;-65
2022/10/10 07:28:39;;;;;;;;;;;11.40;99.90;;;;;;5074508;28;19974;-65
2022/10/10 07:31:08;;;;;;;;;;;11.50;99.90;;;;;;5074629;28;19971;-65
2022/10/10 07:33:37;;;;;;;;;;;11.70;99.90;;;;;;5074589;28;19974;-65
2022/10/10 07:36:05;;;;;;;;;;;11.70;99.90;;;;;;5074549;28;20359;-64
2022/10/10 07:38:33;;;;;;;;;;;11.70;99.90;;;;;;5074540;28;19968;-65
2022/10/10 07:41:04;;;;;;;;;;;11.70;99.90;;;;;;5073741;28;19978;-65
2022/10/10 07:43:33;;;;;;;;;;;11.70;99.90;;;;;;5074383;28;19968;-64
2022/10/10 07:46:01;;;;;;;;;;;11.70;99.90;;;;;;5074355;28;19975;-65
2022/10/10 07:48:31;;;;;;;;;;;11.70;99.90;;;;;;5056115;28;20070;-64
2022/10/10 07:50:59;;;;;;;;;;;11.80;99.90;;;;;;5073598;28;20445;-65
2022/10/10 07:53:27;;;;;;;;;;;11.80;99.90;;;;;;5074118;28;19968;-64
2022/10/10 07:55:55;;;;;;;;;;;11.90;99.90;;;;;;5073944;28;19968;-64
2022/10/10 07:58:22;;;;;;;;;;;12.00;99.90;;;;;;5073950;28;19971;-64
2022/10/10 08:01:01;;;;;;;;;;;12.20;99.90;;;;;;5073884;28;19974;-64
2022/10/10 08:03:28;;;;;;;;;;;12.50;99.90;;;;;;5074112;28;20069;-65
2022/10/10 08:05:56;;;;;;;;;;;12.80;99.90;;;;;;5073802;28;19979;-65
2022/10/10 08:08:24;;;;;;;;;;;13.00;99.90;;;;;;5073343;28;19968;-65
2022/10/10 08:10:51;;;;;;;;;;;13.10;99.90;;;;;;5073634;28;19968;-65
2022/10/10 08:13:19;;;;;;;;;;;13.40;99.90;;;;;;5073868;28;19968;-65
2022/10/10 08:15:50;;;;;;;;;;;13.60;99.90;;;;;;5073549;28;19971;-66
2022/10/10 08:18:19;;;;;;;;;;;13.90;99.90;;;;;;5073640;28;19967;-64
2022/10/10 08:20:47;;;;;;;;;;;14.10;99.90;;;;;;5073307;28;20364;-65
2022/10/10 08:23:14;;;;;;;;;;;14.30;99.90;;;;;;5073903;28;19968;-65
2022/10/10 08:25:43;;;;;;;;;;;14.50;99.90;;;;;;5073523;28;19979;-65
2022/10/10 08:28:11;;;;;;;;;;;14.60;99.90;;;;;;5073389;28;19968;-65
2022/10/10 08:30:40;;;;;;;;;;;14.90;99.90;;;;;;5073328;28;19971;-65
2022/10/10 08:33:07;;;;;;;;;;;15.10;99.90;;;;;;5073624;28;20339;-65
2022/10/10 08:35:38;;;;;;;;;;;15.30;99.90;;;;;;5073730;28;20167;-65
2022/10/10 08:38:07;;;;;;;;;;;15.30;99.90;;;;;;5073226;28;20135;-65
2022/10/10 08:40:41;;;;;;;;;;;15.20;99.90;;;;;;5072739;28;20369;-65
2022/10/10 08:43:12;;;;;;;;;;;15.10;99.90;;;;;;5073201;28;19972;-65
2022/10/10 08:45:39;;;;;;;;;;;14.90;99.90;;;;;;5073309;28;19971;-65
2022/10/10 08:48:10;;;;;;;;;;;14.80;99.90;;;;;;5072889;28;19967;-65
2022/10/10 08:50:42;;;;;;;;;;;14.80;99.90;;;;;;5072974;28;19966;-65
2022/10/10 08:53:12;;;;;;;;;;;15.00;99.90;;;;;;5073158;28;19979;-65
2022/10/10 08:55:42;;;;;;;;;;;15.20;99.90;;;;;;5072892;28;19974;-65
2022/10/10 08:58:15;;;;;;;;;;;15.60;99.90;;;;;;5072692;28;19967;-65
2022/10/10 09:00:45;;;;;;;;;;;15.80;99.90;;;;;;5072642;28;20534;-65
2022/10/10 09:03:17;;;;;;;;;;;16.00;99.90;;;;;;5072121;28;19968;-65
2022/10/10 09:05:54;;;;;;;;;;;16.30;99.90;;;;;;5072745;28;19971;-65
2022/10/10 09:08:31;;;;;;;;;;;16.10;99.90;;;;;;5072359;28;19967;-65
2022/10/10 09:11:06;;;;;;;;;;;16.40;99.90;;;;;;5072517;28;19966;-65
2022/10/10 09:13:35;;;;;;;;;;;16.80;99.90;;;;;;5072705;28;19977;-65
2022/10/10 09:16:05;;;;;;;;;;;17.10;99.90;;;;;;5072671;28;20069;-65
2022/10/10 09:18:52;;;;;;;;;;;17.40;99.90;;;;;;5072210;28;19967;-65
2022/10/10 09:21:23;;;;;;;;;;;17.50;99.90;;;;;;5072290;28;19972;-65
2022/10/10 09:23:56;;;;;;;;;;;17.40;99.90;;;;;;5072519;28;19971;-65
2022/10/10 09:26:26;;;;;;;;;;;17.20;99.90;;;;;;5072389;28;19971;-65
2022/10/10 09:28:55;;;;;;;;;;;16.90;99.90;;;;;;5072070;28;19970;-65
2022/10/10 09:31:26;;;;;;;;;;;16.80;99.90;;;;;;5072102;28;19973;-65
2022/10/10 09:33:57;;;;;;;;;;;17.20;99.90;;;;;;5072631;28;19967;-65
2022/10/10 09:36:30;;;;;;;;;;;17.50;99.90;;;;;;5072485;28;19971;-65
2022/10/10 09:39:00;;;;;;;;;;;17.90;99.90;;;;;;5071545;28;19971;-65
2022/10/10 09:41:31;;;;;;;;;;;17.90;99.90;;;;;;5071978;28;20447;-65
2022/10/10 09:43:59;;;;;;;;;;;18.30;99.90;;;;;;5072091;28;19967;-65
2022/10/10 09:46:27;;;;;;;;;;;18.70;99.90;;;;;;5072082;28;20411;-65
2022/10/10 09:48:55;;;;;;;;;;;18.80;99.90;;;;;;5071837;28;19971;-65
2022/10/10 09:51:23;;;;;;;;;;;18.80;99.90;;;;;;5071831;28;19988;-65
2022/10/10 09:53:52;;;;;;;;;;;19.00;99.90;;;;;;5072008;28;19971;-65
2022/10/10 09:56:21;;;;;;;;;;;19.00;99.90;;;;;;5071998;28;19985;-65
2022/10/10 09:58:49;;;;;;;;;;;19.00;99.90;;;;;;5071822;28;19980;-65
2022/10/10 10:01:18;;;;;;;;;;;19.20;99.90;;;;;;5071763;28;19974;-65
2022/10/10 10:04:06;;;;;;;;;;;19.60;99.90;;;;;;5071807;28;20439;-63
2022/10/10 10:07:03;;;;;;;;;;;19.70;99.90;;;;;;5071740;28;20462;-63
2022/10/10 10:09:32;;;;;;;;;;;19.60;99.90;;;;;;5071814;28;19966;-63
2022/10/10 10:12:00;;;;;;;;;;;19.70;99.90;;;;;;5071762;28;19966;-62
2022/10/10 10:14:29;;;;;;;;;;;19.80;99.90;;;;;;5074645;28;19978;-63
2022/10/10 10:17:05;;;;;;;;;;;19.80;99.90;;;;;;5078767;28;20350;-62
2022/10/10 10:19:34;;;;;;;;;;;19.90;99.90;;;;;;5078397;28;19971;-63
2022/10/10 10:22:02;;;;;;;;;;;20.00;99.90;;;;;;5078684;28;20342;-63
2022/10/10 10:24:35;;;;;;;;;;;20.30;99.90;;;;;;5078323;28;19973;-62
2022/10/10 10:27:08;;;;;;;;;;;20.20;99.90;;;;;;5078325;28;19966;-63
2022/10/10 10:29:36;;;;;;;;;;;20.10;99.90;;;;;;5078444;28;19971;-63
2022/10/10 10:32:11;;;;;;;;;;;20.00;99.90;;;;;;5078577;28;19977;-62
2022/10/10 10:34:52;;;;;;;;;;;20.10;99.90;;;;;;5078515;28;20325;-63
2022/10/10 10:37:22;;;;;;;;;;;20.20;99.90;;;;;;5078295;28;19966;-63
2022/10/10 10:39:58;;;;;;;;;;;20.50;99.90;;;;;;5077820;28;19990;-63
2022/10/10 10:42:35;;;;;;;;;;;20.80;99.90;;;;;;5078162;28;19973;-63
2022/10/10 10:45:09;;;;;;;;;;;20.80;99.90;;;;;;5078076;28;19972;-62
2022/10/10 10:47:42;;;;;;;;;;;21.10;99.90;;;;;;5078106;28;20064;-62
2022/10/10 10:50:24;;;;;;;;;;;20.80;99.90;;;;;;5077944;28;19970;-62
2022/10/10 10:52:56;;;;;;;;;;;20.70;99.90;;;;;;5078067;28;20359;-63
2022/10/10 10:55:33;;;;;;;;;;;20.80;99.90;;;;;;5078200;28;19966;-63
2022/10/10 10:58:25;;;;;;;;;;;20.90;99.90;;;;;;5078045;28;19966;-62
2022/10/10 11:01:16;;;;;;;;;;;21.10;99.90;;;;;;5077648;28;19978;-63
2022/10/10 11:04:04;;;;;;;;;;;21.10;99.90;;;;;;5077498;28;20477;-63
2022/10/10 11:06:56;;;;;;;;;;;21.30;99.90;;;;;;5078029;28;19966;-63
2022/10/10 11:09:46;;;;;;;;;;;21.60;99.90;;;;;;5037739;28;19971;-64
2022/10/10 11:12:23;;;;;;;;;;;21.50;99.90;;;;;;5037912;28;20021;-63
2022/10/10 11:14:54;;;;;;;;;;;21.50;99.90;;;;;;5038410;28;20313;-64
2022/10/10 11:17:24;;;;;;;;;;;21.70;99.90;;;;;;5038120;28;19977;-64
2022/10/10 11:19:55;;;;;;;;;;;21.80;99.90;;;;;;5038175;28;19967;-64
2022/10/10 11:22:25;;;;;;;;;;;22.20;99.90;;;;;;5037948;28;20438;-64
2022/10/10 11:24:55;;;;;;;;;;;22.60;99.90;;;;;;5037661;28;20025;-64
2022/10/10 11:27:27;;;;;;;;;;;22.60;99.90;;;;;;5034315;28;19972;-63
2022/10/10 11:30:00;;;;;;;;;;;22.80;99.90;;;;;;5034762;28;19968;-64
2022/10/10 11:32:30;;;;;;;;;;;23.00;99.90;;;;;;5034746;28;19969;-64
2022/10/10 11:35:04;;;;;;;;;;;22.80;99.90;;;;;;5034703;28;20441;-63
2022/10/10 11:37:35;;;;;;;;;;;23.10;99.90;;;;;;5034691;28;19968;-64
2022/10/10 11:40:04;;;;;;;;;;;23.40;99.90;;;;;;5034179;28;19968;-64
2022/10/10 11:42:37;;;;;;;;;;;23.70;99.90;;;;;;5034416;28;20323;-64
2022/10/10 11:45:09;;;;;;;;;;;23.60;99.90;;;;;;5034437;28;19968;-64
2022/10/10 11:47:40;;;;;;;;;;;23.40;99.90;;;;;;5034441;28;19968;-64
2022/10/10 11:50:11;;;;;;;;;;;23.20;99.90;;;;;;5034170;28;19972;-64
2022/10/10 11:52:43;;;;;;;;;;;23.20;99.90;;;;;;5034494;28;19975;-65
2022/10/10 11:55:15;;;;;;;;;;;23.30;99.90;;;;;;5034117;28;19968;-64
2022/10/10 11:57:46;;;;;;;;;;;23.10;99.90;;;;;;5034231;28;19972;-64
2022/10/10 12:00:15;;;;;;;;;;;23.00;99.90;;;;;;5034208;28;19979;-64
2022/10/10 12:02:44;;;;;;;;;;;23.30;99.90;;;;;;5034200;28;19979;-64
2022/10/10 12:05:19;;;;;;;;;;;23.10;99.90;;;;;;5034033;28;19977;-65
2022/10/10 12:07:51;;;;;;;;;;;23.20;99.90;;;;;;5045244;28;19972;-65
2022/10/10 12:10:22;;;;;;;;;;;23.70;99.90;;;;;;5073718;28;19967;-64
2022/10/10 12:12:53;;;;;;;;;;;24.00;99.90;;;;;;5073928;28;20058;-64
2022/10/10 12:15:25;;;;;;;;;;;24.20;99.90;;;;;;5073845;28;19968;-64
2022/10/10 12:17:53;;;;;;;;;;;24.40;99.90;;;;;;5073848;28;19967;-64
2022/10/10 12:20:31;;;;;;;;;;;24.70;99.90;;;;;;5073498;28;20015;-64
2022/10/10 12:23:17;;;;;;;;;;;25.10;99.90;;;;;;5073592;28;20458;-64
2022/10/10 12:25:46;;;;;;;;;;;25.50;99.90;;;;;;5073746;28;19972;-64
2022/10/10 12:28:26;;;;;;;;;;;26.00;99.90;;;;;;5073334;28;19967;-64
2022/10/10 12:31:12;;;;;;;;;;;26.30;99.90;;;;;;5073270;28;19968;-64
2022/10/10 12:34:00;;;;;;;;;;;26.60;99.70;;;;;;5073346;28;19971;-64
2022/10/10 12:36:53;;;;;;;;;;;26.70;99.60;;;;;;5073281;28;19968;-64
2022/10/10 12:39:34;;;;;;;;;;;26.30;99.60;;;;;;5072482;28;20022;-64
2022/10/10 12:42:02;;;;;;;;;;;26.30;99.50;;;;;;5073392;28;19974;-64
2022/10/10 12:44:48;;;;;;;;;;;26.30;99.60;;;;;;5072892;28;19967;-64
2022/10/10 12:47:26;;;;;;;;;;;26.40;99.30;;;;;;5052972;28;20429;-64
2022/10/10 12:50:20;;;;;;;;;;;26.20;99.40;;;;;;5052979;28;20444;-64
2022/10/10 12:52:49;;;;;;;;;;;25.70;99.90;;;;;;5053417;28;20348;-64
2022/10/10 12:55:19;;;;;;;;;;;25.90;99.90;;;;;;5052897;28;20465;-64
2022/10/10 12:57:48;;;;;;;;;;;26.10;99.90;;;;;;5052991;28;19968;-64
2022/10/10 13:00:17;;;;;;;;;;;26.20;99.90;;;;;;5052713;28;19968;-64
2022/10/10 13:02:48;;;;;;;;;;;26.00;99.60;;;;;;5052998;28;19968;-64
2022/10/10 13:05:18;;;;;;;;;;;25.60;99.90;;;;;;5052815;28;20329;-64
2022/10/10 13:07:47;;;;;;;;;;;25.00;99.90;;;;;;5053514;28;19968;-64
2022/10/10 13:10:20;;;;;;;;;;;24.60;99.90;;;;;;5052473;28;20460;-64
2022/10/10 13:12:58;;;;;;;;;;;24.50;99.90;;;;;;5052727;28;20544;-64
2022/10/10 13:15:25;;;;;;;;;;;24.90;99.90;;;;;;5052363;28;19994;-64
2022/10/10 13:17:55;;;;;;;;;;;25.30;99.90;;;;;;5052461;28;20074;-64
2022/10/10 13:20:26;;;;;;;;;;;25.50;99.90;;;;;;5052220;28;19968;-64
2022/10/10 13:22:55;;;;;;;;;;;25.90;99.90;;;;;;5052630;28;20451;-64
2022/10/10 13:25:23;;;;;;;;;;;26.00;99.90;;;;;;5052282;28;20503;-63
2022/10/10 13:27:51;;;;;;;;;;;25.50;99.90;;;;;;5052324;28;20471;-63
2022/10/10 13:30:19;;;;;;;;;;;24.80;99.90;;;;;;5052260;28;20029;-64
2022/10/10 13:32:47;;;;;;;;;;;24.70;99.90;;;;;;5052381;28;19972;-63
2022/10/10 13:35:17;;;;;;;;;;;24.60;99.90;;;;;;5052200;28;20363;-63
2022/10/10 13:37:49;;;;;;;;;;;24.20;99.90;;;;;;5052530;28;20334;-63
2022/10/10 13:40:18;;;;;;;;;;;24.10;99.90;;;;;;5052280;28;19968;-63
2022/10/10 13:42:47;;;;;;;;;;;24.30;99.90;;;;;;5052501;28;19968;-64
2022/10/10 13:45:32;;;;;;;;;;;24.70;99.90;;;;;;5052389;28;19978;-63
2022/10/10 13:48:16;;;;;;;;;;;24.90;99.90;;;;;;5052082;28;19968;-63
2022/10/10 13:50:55;;;;;;;;;;;24.60;99.90;;;;;;5052053;28;20002;-63
2022/10/10 13:53:43;;;;;;;;;;;24.60;99.90;;;;;;5052178;28;20023;-64
2022/10/10 13:56:12;;;;;;;;;;;24.40;99.90;;;;;;5051879;28;20003;-63
2022/10/10 13:58:41;;;;;;;;;;;24.40;99.90;;;;;;5052185;28;19972;-64
2022/10/10 14:01:20;;;;;;;;;;;24.50;99.90;;;;;;5051977;28;19978;-64
2022/10/10 14:03:49;;;;;;;;;;;24.60;99.90;;;;;;5052012;28;19968;-64
2022/10/10 14:06:19;;;;;;;;;;;24.10;99.90;;;;;;5051787;28;19968;-63
2022/10/10 14:08:48;;;;;;;;;;;24.10;99.90;;;;;;5051452;28;19972;-64
2022/10/10 14:11:17;;;;;;;;;;;24.40;99.90;;;;;;5051752;28;19968;-63
2022/10/10 14:13:47;;;;;;;;;;;24.50;99.90;;;;;;5051768;28;19968;-64
2022/10/10 14:16:21;;;;;;;;;;;24.10;99.90;;;;;;5051875;28;20393;-63
2022/10/10 14:18:49;;;;;;;;;;;23.50;99.90;;;;;;5051679;28;20449;-63
2022/10/10 14:21:18;;;;;;;;;;;23.00;99.90;;;;;;5051491;28;19968;-63
2022/10/10 14:23:46;;;;;;;;;;;22.50;99.90;;;;;;5051755;28;20360;-63
2022/10/10 14:26:15;;;;;;;;;;;22.10;99.90;;;;;;5051612;28;19975;-64
2022/10/10 14:28:42;;;;;;;;;;;21.90;99.90;;;;;;5051422;28;19976;-63
2022/10/10 14:31:11;;;;;;;;;;;21.80;99.90;;;;;;5051498;28;19974;-63
2022/10/10 14:33:39;;;;;;;;;;;21.70;99.90;;;;;;5051605;28;19968;-63
2022/10/10 14:36:07;;;;;;;;;;;21.60;99.90;;;;;;5051434;28;19967;-63
2022/10/10 14:38:36;;;;;;;;;;;21.50;99.90;;;;;;5051444;28;19967;-63